sensor_id;sensor_type;location;lat;lon;timestamp;P1;durP1;ratioP1;P2;durP2;ratioP2
7933;SDS011;4012;48.896;9.192;2024-03-07T00:01:58;37.63;;;24.03;;
7933;SDS011;4012;48.896;9.192;2024-03-07T00:04:23;34.40;;;24.03;;
7933;SDS011;4012;48.896;9.192;2024-03-07T00:06:49;34.67;;;24.90;;
7933;SDS011;4012;48.896;9.192;2024-03-07T00:09:15;33.07;;;24.83;;
7933;SDS011;4012;48.896;9.192;2024-03-07T00:11:41;34.23;;;24.67;;
7933;SDS011;4012;48.896;9.192;2024-03-07T00:14:07;36.63;;;26.40;;
7933;SDS011;4012;48.896;9.192;2024-03-07T00:16:33;38.03;;;25.43;;
7933;SDS011;4012;48.896;9.192;2024-03-07T00:18:59;38.80;;;26.03;;
7933;SDS011;4012;48.896;9.192;2024-03-07T00:21:25;35.07;;;25.67;;
7933;SDS011;4012;48.896;9.192;2024-03-07T00:23:51;31.23;;;23.30;;
7933;SDS011;4012;48.896;9.192;2024-03-07T00:26:19;35.13;;;24.90;;
7933;SDS011;4012;48.896;9.192;2024-03-07T00:28:44;33.60;;;25.10;;
7933;SDS011;4012;48.896;9.192;2024-03-07T00:31:10;35.13;;;25.27;;
7933;SDS011;4012;48.896;9.192;2024-03-07T00:33:36;41.13;;;25.43;;
7933;SDS011;4012;48.896;9.192;2024-03-07T00:36:01;33.67;;;23.37;;
7933;SDS011;4012;48.896;9.192;2024-03-07T00:38:27;31.63;;;23.67;;
7933;SDS011;4012;48.896;9.192;2024-03-07T00:40:53;32.77;;;24.87;;
7933;SDS011;4012;48.896;9.192;2024-03-07T00:43:19;34.33;;;25.77;;
7933;SDS011;4012;48.896;9.192;2024-03-07T00:45:45;33.87;;;24.57;;
7933;SDS011;4012;48.896;9.192;2024-03-07T00:48:14;31.10;;;23.43;;
7933;SDS011;4012;48.896;9.192;2024-03-07T00:50:40;39.80;;;26.03;;
7933;SDS011;4012;48.896;9.192;2024-03-07T00:53:07;36.40;;;24.57;;
7933;SDS011;4012;48.896;9.192;2024-03-07T00:55:33;36.67;;;26.23;;
7933;SDS011;4012;48.896;9.192;2024-03-07T00:57:59;37.93;;;26.27;;
7933;SDS011;4012;48.896;9.192;2024-03-07T01:00:24;36.20;;;26.63;;
7933;SDS011;4012;48.896;9.192;2024-03-07T01:02:50;38.70;;;26.03;;
7933;SDS011;4012;48.896;9.192;2024-03-07T01:05:18;34.00;;;25.80;;
7933;SDS011;4012;48.896;9.192;2024-03-07T01:07:44;37.80;;;27.10;;
7933;SDS011;4012;48.896;9.192;2024-03-07T01:10:11;41.43;;;27.43;;
7933;SDS011;4012;48.896;9.192;2024-03-07T01:12:37;39.30;;;27.70;;
7933;SDS011;4012;48.896;9.192;2024-03-07T01:15:03;36.30;;;26.00;;
7933;SDS011;4012;48.896;9.192;2024-03-07T01:17:29;37.43;;;26.80;;
7933;SDS011;4012;48.896;9.192;2024-03-07T01:19:55;35.87;;;26.13;;
7933;SDS011;4012;48.896;9.192;2024-03-07T01:22:21;38.00;;;28.10;;
7933;SDS011;4012;48.896;9.192;2024-03-07T01:24:47;35.53;;;28.10;;
7933;SDS011;4012;48.896;9.192;2024-03-07T01:27:13;40.67;;;31.30;;
7933;SDS011;4012;48.896;9.192;2024-03-07T01:29:38;37.63;;;26.93;;
7933;SDS011;4012;48.896;9.192;2024-03-07T01:32:06;40.00;;;29.53;;
7933;SDS011;4012;48.896;9.192;2024-03-07T01:34:32;41.53;;;32.53;;
7933;SDS011;4012;48.896;9.192;2024-03-07T01:36:57;42.93;;;34.47;;
7933;SDS011;4012;48.896;9.192;2024-03-07T01:39:23;42.03;;;32.13;;
7933;SDS011;4012;48.896;9.192;2024-03-07T01:41:49;37.27;;;27.03;;
7933;SDS011;4012;48.896;9.192;2024-03-07T01:44:14;40.00;;;27.90;;
7933;SDS011;4012;48.896;9.192;2024-03-07T01:46:40;44.57;;;27.50;;
7933;SDS011;4012;48.896;9.192;2024-03-07T01:49:08;40.33;;;31.80;;
7933;SDS011;4012;48.896;9.192;2024-03-07T01:51:35;42.20;;;31.63;;
7933;SDS011;4012;48.896;9.192;2024-03-07T01:54:01;39.43;;;29.53;;
7933;SDS011;4012;48.896;9.192;2024-03-07T01:56:28;39.10;;;29.97;;
7933;SDS011;4012;48.896;9.192;2024-03-07T01:58:54;40.53;;;27.87;;
7933;SDS011;4012;48.896;9.192;2024-03-07T02:01:22;41.23;;;32.30;;
7933;SDS011;4012;48.896;9.192;2024-03-07T02:03:48;40.30;;;28.57;;
7933;SDS011;4012;48.896;9.192;2024-03-07T02:06:14;41.20;;;32.27;;
7933;SDS011;4012;48.896;9.192;2024-03-07T02:08:39;44.00;;;30.87;;
7933;SDS011;4012;48.896;9.192;2024-03-07T02:11:05;38.37;;;28.93;;
7933;SDS011;4012;48.896;9.192;2024-03-07T02:13:31;38.33;;;30.17;;
7933;SDS011;4012;48.896;9.192;2024-03-07T02:15:56;37.97;;;28.63;;
7933;SDS011;4012;48.896;9.192;2024-03-07T02:18:22;41.00;;;27.63;;
7933;SDS011;4012;48.896;9.192;2024-03-07T02:20:48;42.93;;;32.20;;
7933;SDS011;4012;48.896;9.192;2024-03-07T02:23:14;42.60;;;27.97;;
7933;SDS011;4012;48.896;9.192;2024-03-07T02:25:40;37.97;;;27.97;;
7933;SDS011;4012;48.896;9.192;2024-03-07T02:28:05;40.97;;;31.47;;
7933;SDS011;4012;48.896;9.192;2024-03-07T02:30:31;38.23;;;29.80;;
7933;SDS011;4012;48.896;9.192;2024-03-07T02:33:00;38.43;;;26.57;;
7933;SDS011;4012;48.896;9.192;2024-03-07T02:35:32;44.40;;;33.10;;
7933;SDS011;4012;48.896;9.192;2024-03-07T02:37:59;46.27;;;34.83;;
7933;SDS011;4012;48.896;9.192;2024-03-07T02:40:25;43.63;;;32.63;;
7933;SDS011;4012;48.896;9.192;2024-03-07T02:42:50;43.50;;;33.70;;
7933;SDS011;4012;48.896;9.192;2024-03-07T02:45:16;42.63;;;32.37;;
7933;SDS011;4012;48.896;9.192;2024-03-07T02:47:42;43.90;;;29.20;;
7933;SDS011;4012;48.896;9.192;2024-03-07T02:50:09;39.73;;;28.23;;
7933;SDS011;4012;48.896;9.192;2024-03-07T02:52:35;44.10;;;34.17;;
7933;SDS011;4012;48.896;9.192;2024-03-07T02:55:01;40.73;;;27.87;;
7933;SDS011;4012;48.896;9.192;2024-03-07T02:57:29;42.57;;;32.93;;
7933;SDS011;4012;48.896;9.192;2024-03-07T02:59:55;38.47;;;26.97;;
7933;SDS011;4012;48.896;9.192;2024-03-07T03:02:21;41.10;;;33.17;;
7933;SDS011;4012;48.896;9.192;2024-03-07T03:04:47;42.37;;;32.27;;
7933;SDS011;4012;48.896;9.192;2024-03-07T03:07:13;40.97;;;28.47;;
7933;SDS011;4012;48.896;9.192;2024-03-07T03:09:39;45.10;;;33.67;;
7933;SDS011;4012;48.896;9.192;2024-03-07T03:12:08;45.50;;;32.43;;
7933;SDS011;4012;48.896;9.192;2024-03-07T03:14:34;36.10;;;26.93;;
7933;SDS011;4012;48.896;9.192;2024-03-07T03:17:00;39.37;;;27.13;;
7933;SDS011;4012;48.896;9.192;2024-03-07T03:19:25;40.33;;;27.50;;
7933;SDS011;4012;48.896;9.192;2024-03-07T03:21:51;40.60;;;32.77;;
7933;SDS011;4012;48.896;9.192;2024-03-07T03:24:17;40.80;;;32.27;;
7933;SDS011;4012;48.896;9.192;2024-03-07T03:26:43;45.40;;;33.63;;
7933;SDS011;4012;48.896;9.192;2024-03-07T03:29:10;42.90;;;33.47;;
7933;SDS011;4012;48.896;9.192;2024-03-07T03:31:36;38.40;;;26.83;;
7933;SDS011;4012;48.896;9.192;2024-03-07T03:34:02;43.63;;;29.37;;
7933;SDS011;4012;48.896;9.192;2024-03-07T03:36:28;45.03;;;34.57;;
7933;SDS011;4012;48.896;9.192;2024-03-07T03:38:54;41.03;;;33.00;;
7933;SDS011;4012;48.896;9.192;2024-03-07T03:41:20;47.37;;;34.83;;
7933;SDS011;4012;48.896;9.192;2024-03-07T03:43:45;43.87;;;33.17;;
7933;SDS011;4012;48.896;9.192;2024-03-07T03:46:12;42.57;;;33.13;;
7933;SDS011;4012;48.896;9.192;2024-03-07T03:48:41;42.27;;;31.50;;
7933;SDS011;4012;48.896;9.192;2024-03-07T03:51:07;44.30;;;33.00;;
7933;SDS011;4012;48.896;9.192;2024-03-07T03:53:34;42.23;;;29.47;;
7933;SDS011;4012;48.896;9.192;2024-03-07T03:56:03;37.43;;;26.57;;
7933;SDS011;4012;48.896;9.192;2024-03-07T03:58:31;40.87;;;28.97;;
7933;SDS011;4012;48.896;9.192;2024-03-07T04:00:57;38.07;;;27.17;;
7933;SDS011;4012;48.896;9.192;2024-03-07T04:03:25;45.50;;;34.07;;
7933;SDS011;4012;48.896;9.192;2024-03-07T04:05:51;40.20;;;32.37;;
7933;SDS011;4012;48.896;9.192;2024-03-07T04:08:17;41.33;;;32.13;;
7933;SDS011;4012;48.896;9.192;2024-03-07T04:10:45;44.00;;;34.23;;
7933;SDS011;4012;48.896;9.192;2024-03-07T04:13:10;43.30;;;32.43;;
7933;SDS011;4012;48.896;9.192;2024-03-07T04:15:36;41.20;;;27.83;;
7933;SDS011;4012;48.896;9.192;2024-03-07T04:18:01;40.50;;;33.50;;
7933;SDS011;4012;48.896;9.192;2024-03-07T04:20:27;42.83;;;33.93;;
7933;SDS011;4012;48.896;9.192;2024-03-07T04:22:53;44.57;;;34.10;;
7933;SDS011;4012;48.896;9.192;2024-03-07T04:25:20;42.20;;;33.53;;
7933;SDS011;4012;48.896;9.192;2024-03-07T04:27:46;45.77;;;31.73;;
7933;SDS011;4012;48.896;9.192;2024-03-07T04:30:11;45.20;;;34.47;;
7933;SDS011;4012;48.896;9.192;2024-03-07T04:32:37;44.17;;;35.00;;
7933;SDS011;4012;48.896;9.192;2024-03-07T04:35:04;44.10;;;34.73;;
7933;SDS011;4012;48.896;9.192;2024-03-07T04:37:33;45.50;;;35.43;;
7933;SDS011;4012;48.896;9.192;2024-03-07T04:40:03;46.03;;;35.53;;
7933;SDS011;4012;48.896;9.192;2024-03-07T04:42:49;46.50;;;35.93;;
7933;SDS011;4012;48.896;9.192;2024-03-07T04:45:15;46.70;;;34.90;;
7933;SDS011;4012;48.896;9.192;2024-03-07T04:47:42;46.90;;;35.50;;
7933;SDS011;4012;48.896;9.192;2024-03-07T04:50:09;44.00;;;34.33;;
7933;SDS011;4012;48.896;9.192;2024-03-07T04:52:38;45.03;;;35.07;;
7933;SDS011;4012;48.896;9.192;2024-03-07T04:55:07;47.03;;;34.77;;
7933;SDS011;4012;48.896;9.192;2024-03-07T04:57:35;45.83;;;35.53;;
7933;SDS011;4012;48.896;9.192;2024-03-07T05:00:09;48.03;;;35.20;;
7933;SDS011;4012;48.896;9.192;2024-03-07T05:02:42;49.07;;;37.40;;
7933;SDS011;4012;48.896;9.192;2024-03-07T05:05:09;49.60;;;36.80;;
7933;SDS011;4012;48.896;9.192;2024-03-07T05:07:38;43.87;;;34.77;;
7933;SDS011;4012;48.896;9.192;2024-03-07T05:10:07;46.73;;;37.57;;
7933;SDS011;4012;48.896;9.192;2024-03-07T05:12:33;49.73;;;35.50;;
7933;SDS011;4012;48.896;9.192;2024-03-07T05:14:59;45.10;;;33.87;;
7933;SDS011;4012;48.896;9.192;2024-03-07T05:17:25;44.30;;;34.90;;
7933;SDS011;4012;48.896;9.192;2024-03-07T05:19:50;46.50;;;37.13;;
7933;SDS011;4012;48.896;9.192;2024-03-07T05:22:17;49.10;;;36.73;;
7933;SDS011;4012;48.896;9.192;2024-03-07T05:24:45;48.90;;;36.97;;
7933;SDS011;4012;48.896;9.192;2024-03-07T05:27:11;47.63;;;36.17;;
7933;SDS011;4012;48.896;9.192;2024-03-07T05:29:37;47.43;;;37.50;;
7933;SDS011;4012;48.896;9.192;2024-03-07T05:32:21;49.20;;;36.20;;
7933;SDS011;4012;48.896;9.192;2024-03-07T05:34:51;47.35;;;41.95;;
7933;SDS011;4012;48.896;9.192;2024-03-07T05:37:18;45.43;;;34.40;;
7933;SDS011;4012;48.896;9.192;2024-03-07T05:39:48;45.93;;;36.50;;
7933;SDS011;4012;48.896;9.192;2024-03-07T05:42:17;44.57;;;35.87;;
7933;SDS011;4012;48.896;9.192;2024-03-07T05:44:44;46.13;;;36.47;;
7933;SDS011;4012;48.896;9.192;2024-03-07T05:47:09;47.57;;;36.70;;
7933;SDS011;4012;48.896;9.192;2024-03-07T05:49:37;48.10;;;35.27;;
7933;SDS011;4012;48.896;9.192;2024-03-07T05:52:03;45.07;;;36.33;;
7933;SDS011;4012;48.896;9.192;2024-03-07T05:54:30;42.17;;;34.60;;
7933;SDS011;4012;48.896;9.192;2024-03-07T05:56:56;43.37;;;35.43;;
7933;SDS011;4012;48.896;9.192;2024-03-07T05:59:22;47.37;;;35.73;;
7933;SDS011;4012;48.896;9.192;2024-03-07T06:01:48;47.73;;;34.50;;
7933;SDS011;4012;48.896;9.192;2024-03-07T06:04:13;48.97;;;36.13;;
7933;SDS011;4012;48.896;9.192;2024-03-07T06:06:40;46.00;;;35.53;;
7933;SDS011;4012;48.896;9.192;2024-03-07T06:09:07;45.30;;;33.30;;
7933;SDS011;4012;48.896;9.192;2024-03-07T06:11:34;42.63;;;33.47;;
7933;SDS011;4012;48.896;9.192;2024-03-07T06:14:03;48.43;;;34.23;;
7933;SDS011;4012;48.896;9.192;2024-03-07T06:16:30;40.67;;;32.87;;
7933;SDS011;4012;48.896;9.192;2024-03-07T06:19:03;44.30;;;33.83;;
7933;SDS011;4012;48.896;9.192;2024-03-07T06:21:32;43.20;;;32.87;;
7933;SDS011;4012;48.896;9.192;2024-03-07T06:23:58;43.30;;;33.53;;
7933;SDS011;4012;48.896;9.192;2024-03-07T06:26:31;40.67;;;32.83;;
7933;SDS011;4012;48.896;9.192;2024-03-07T06:29:10;39.33;;;32.77;;
7933;SDS011;4012;48.896;9.192;2024-03-07T06:31:36;41.50;;;33.53;;
7933;SDS011;4012;48.896;9.192;2024-03-07T06:34:02;40.57;;;33.37;;
7933;SDS011;4012;48.896;9.192;2024-03-07T06:36:28;41.97;;;32.33;;
7933;SDS011;4012;48.896;9.192;2024-03-07T06:38:54;35.63;;;31.37;;
7933;SDS011;4012;48.896;9.192;2024-03-07T06:41:20;41.47;;;31.13;;
7933;SDS011;4012;48.896;9.192;2024-03-07T06:43:46;38.17;;;31.43;;
7933;SDS011;4012;48.896;9.192;2024-03-07T06:46:12;39.03;;;31.50;;
7933;SDS011;4012;48.896;9.192;2024-03-07T06:48:38;29.60;;;23.80;;
7933;SDS011;4012;48.896;9.192;2024-03-07T06:51:05;41.87;;;31.97;;
7933;SDS011;4012;48.896;9.192;2024-03-07T06:53:31;37.53;;;30.00;;
7933;SDS011;4012;48.896;9.192;2024-03-07T06:55:57;37.57;;;26.57;;
7933;SDS011;4012;48.896;9.192;2024-03-07T06:58:23;38.33;;;29.00;;
7933;SDS011;4012;48.896;9.192;2024-03-07T07:00:48;40.27;;;29.73;;
7933;SDS011;4012;48.896;9.192;2024-03-07T07:03:17;33.97;;;25.33;;
7933;SDS011;4012;48.896;9.192;2024-03-07T07:05:44;36.27;;;27.27;;
7933;SDS011;4012;48.896;9.192;2024-03-07T07:08:10;36.40;;;29.97;;
7933;SDS011;4012;48.896;9.192;2024-03-07T07:10:37;32.17;;;26.67;;
7933;SDS011;4012;48.896;9.192;2024-03-07T07:13:05;33.60;;;28.03;;
7933;SDS011;4012;48.896;9.192;2024-03-07T07:15:31;30.17;;;23.00;;
7933;SDS011;4012;48.896;9.192;2024-03-07T07:17:57;32.17;;;25.70;;
7933;SDS011;4012;48.896;9.192;2024-03-07T07:20:24;29.37;;;22.23;;
7933;SDS011;4012;48.896;9.192;2024-03-07T07:22:50;33.63;;;23.47;;
7933;SDS011;4012;48.896;9.192;2024-03-07T07:25:18;31.93;;;25.67;;
7933;SDS011;4012;48.896;9.192;2024-03-07T07:30:13;30.60;;;26.57;;
7933;SDS011;4012;48.896;9.192;2024-03-07T07:32:39;30.63;;;24.80;;
7933;SDS011;4012;48.896;9.192;2024-03-07T07:35:06;33.03;;;27.67;;
7933;SDS011;4012;48.896;9.192;2024-03-07T07:37:36;29.27;;;21.57;;
7933;SDS011;4012;48.896;9.192;2024-03-07T07:40:06;31.33;;;24.77;;
7933;SDS011;4012;48.896;9.192;2024-03-07T07:42:38;29.93;;;21.80;;
7933;SDS011;4012;48.896;9.192;2024-03-07T07:45:10;31.10;;;22.57;;
7933;SDS011;4012;48.896;9.192;2024-03-07T07:47:47;28.10;;;21.10;;
7933;SDS011;4012;48.896;9.192;2024-03-07T07:50:15;31.67;;;21.63;;
7933;SDS011;4012;48.896;9.192;2024-03-07T07:52:45;27.57;;;19.93;;
7933;SDS011;4012;48.896;9.192;2024-03-07T07:55:14;32.47;;;21.73;;
7933;SDS011;4012;48.896;9.192;2024-03-07T07:57:42;25.17;;;20.70;;
7933;SDS011;4012;48.896;9.192;2024-03-07T08:00:12;23.97;;;18.67;;
7933;SDS011;4012;48.896;9.192;2024-03-07T08:05:15;21.67;;;17.50;;
7933;SDS011;4012;48.896;9.192;2024-03-07T08:07:43;22.47;;;17.13;;
7933;SDS011;4012;48.896;9.192;2024-03-07T08:10:09;21.70;;;17.03;;
7933;SDS011;4012;48.896;9.192;2024-03-07T08:12:35;23.40;;;18.20;;
7933;SDS011;4012;48.896;9.192;2024-03-07T08:15:02;20.90;;;18.00;;
7933;SDS011;4012;48.896;9.192;2024-03-07T08:17:29;20.47;;;17.23;;
7933;SDS011;4012;48.896;9.192;2024-03-07T08:19:56;22.17;;;16.37;;
7933;SDS011;4012;48.896;9.192;2024-03-07T08:22:22;18.37;;;16.27;;
7933;SDS011;4012;48.896;9.192;2024-03-07T08:24:48;16.60;;;14.43;;
7933;SDS011;4012;48.896;9.192;2024-03-07T08:27:14;19.03;;;15.37;;
7933;SDS011;4012;48.896;9.192;2024-03-07T08:29:40;20.27;;;15.87;;
7933;SDS011;4012;48.896;9.192;2024-03-07T08:32:05;16.70;;;14.63;;
7933;SDS011;4012;48.896;9.192;2024-03-07T08:34:32;19.60;;;16.83;;
7933;SDS011;4012;48.896;9.192;2024-03-07T08:36:57;17.73;;;15.83;;
7933;SDS011;4012;48.896;9.192;2024-03-07T08:39:23;22.73;;;17.33;;
7933;SDS011;4012;48.896;9.192;2024-03-07T08:41:49;20.63;;;17.23;;
7933;SDS011;4012;48.896;9.192;2024-03-07T08:44:15;21.73;;;17.23;;
7933;SDS011;4012;48.896;9.192;2024-03-07T08:46:40;20.87;;;17.50;;
7933;SDS011;4012;48.896;9.192;2024-03-07T08:49:06;21.70;;;18.17;;
7933;SDS011;4012;48.896;9.192;2024-03-07T08:51:32;21.47;;;17.70;;
7933;SDS011;4012;48.896;9.192;2024-03-07T08:53:58;23.17;;;17.60;;
7933;SDS011;4012;48.896;9.192;2024-03-07T08:56:24;20.47;;;17.53;;
7933;SDS011;4012;48.896;9.192;2024-03-07T08:58:49;22.10;;;18.20;;
7933;SDS011;4012;48.896;9.192;2024-03-07T09:01:15;21.10;;;17.37;;
7933;SDS011;4012;48.896;9.192;2024-03-07T09:03:40;21.43;;;18.07;;
7933;SDS011;4012;48.896;9.192;2024-03-07T09:06:06;20.07;;;17.60;;
7933;SDS011;4012;48.896;9.192;2024-03-07T09:08:32;22.60;;;18.87;;
7933;SDS011;4012;48.896;9.192;2024-03-07T09:10:57;22.47;;;17.90;;
7933;SDS011;4012;48.896;9.192;2024-03-07T09:13:23;22.87;;;17.73;;
7933;SDS011;4012;48.896;9.192;2024-03-07T09:15:49;21.97;;;17.77;;
7933;SDS011;4012;48.896;9.192;2024-03-07T09:18:14;23.17;;;19.00;;
7933;SDS011;4012;48.896;9.192;2024-03-07T09:20:41;22.30;;;16.53;;
7933;SDS011;4012;48.896;9.192;2024-03-07T09:23:07;21.03;;;18.20;;
7933;SDS011;4012;48.896;9.192;2024-03-07T09:25:32;30.77;;;18.80;;
7933;SDS011;4012;48.896;9.192;2024-03-07T09:27:59;26.80;;;18.90;;
7933;SDS011;4012;48.896;9.192;2024-03-07T09:30:25;22.47;;;18.30;;
7933;SDS011;4012;48.896;9.192;2024-03-07T09:32:52;23.67;;;17.97;;
7933;SDS011;4012;48.896;9.192;2024-03-07T09:35:20;22.83;;;16.93;;
7933;SDS011;4012;48.896;9.192;2024-03-07T09:37:46;20.67;;;17.60;;
7933;SDS011;4012;48.896;9.192;2024-03-07T09:40:11;21.37;;;17.30;;
7933;SDS011;4012;48.896;9.192;2024-03-07T09:42:41;23.50;;;17.07;;
7933;SDS011;4012;48.896;9.192;2024-03-07T09:45:17;29.13;;;19.13;;
7933;SDS011;4012;48.896;9.192;2024-03-07T09:47:48;24.70;;;19.37;;
7933;SDS011;4012;48.896;9.192;2024-03-07T09:50:18;23.70;;;19.53;;
7933;SDS011;4012;48.896;9.192;2024-03-07T09:52:47;25.23;;;18.90;;
7933;SDS011;4012;48.896;9.192;2024-03-07T09:55:17;27.87;;;19.17;;
7933;SDS011;4012;48.896;9.192;2024-03-07T09:57:44;21.30;;;18.20;;
7933;SDS011;4012;48.896;9.192;2024-03-07T10:00:18;18.77;;;16.77;;
7933;SDS011;4012;48.896;9.192;2024-03-07T10:02:48;18.93;;;17.00;;
7933;SDS011;4012;48.896;9.192;2024-03-07T10:05:20;20.07;;;17.93;;
7933;SDS011;4012;48.896;9.192;2024-03-07T10:07:48;20.50;;;17.47;;
7933;SDS011;4012;48.896;9.192;2024-03-07T10:10:14;21.37;;;19.17;;
7933;SDS011;4012;48.896;9.192;2024-03-07T10:12:41;21.23;;;18.90;;
7933;SDS011;4012;48.896;9.192;2024-03-07T10:15:07;22.03;;;18.03;;
7933;SDS011;4012;48.896;9.192;2024-03-07T10:17:38;20.83;;;18.60;;
7933;SDS011;4012;48.896;9.192;2024-03-07T10:20:05;23.30;;;17.83;;
7933;SDS011;4012;48.896;9.192;2024-03-07T10:22:35;21.03;;;18.83;;
7933;SDS011;4012;48.896;9.192;2024-03-07T10:25:01;21.27;;;18.63;;
7933;SDS011;4012;48.896;9.192;2024-03-07T10:27:29;22.87;;;19.37;;
7933;SDS011;4012;48.896;9.192;2024-03-07T10:29:55;21.50;;;18.63;;
7933;SDS011;4012;48.896;9.192;2024-03-07T10:32:21;22.73;;;19.33;;
7933;SDS011;4012;48.896;9.192;2024-03-07T10:34:50;23.73;;;19.33;;
7933;SDS011;4012;48.896;9.192;2024-03-07T10:37:17;22.60;;;19.83;;
7933;SDS011;4012;48.896;9.192;2024-03-07T10:39:44;21.90;;;18.87;;
7933;SDS011;4012;48.896;9.192;2024-03-07T10:42:14;25.00;;;20.27;;
7933;SDS011;4012;48.896;9.192;2024-03-07T10:44:43;23.20;;;20.13;;
7933;SDS011;4012;48.896;9.192;2024-03-07T10:47:11;25.57;;;21.80;;
7933;SDS011;4012;48.896;9.192;2024-03-07T10:49:44;22.97;;;20.47;;
7933;SDS011;4012;48.896;9.192;2024-03-07T10:53:03;24.77;;;20.77;;
7933;SDS011;4012;48.896;9.192;2024-03-07T10:58:09;25.50;;;19.90;;
7933;SDS011;4012;48.896;9.192;2024-03-07T11:00:39;27.97;;;21.13;;
7933;SDS011;4012;48.896;9.192;2024-03-07T11:03:10;26.40;;;20.80;;
7933;SDS011;4012;48.896;9.192;2024-03-07T11:05:36;26.10;;;21.60;;
7933;SDS011;4012;48.896;9.192;2024-03-07T11:08:03;23.70;;;21.07;;
7933;SDS011;4012;48.896;9.192;2024-03-07T11:10:37;27.83;;;23.10;;
7933;SDS011;4012;48.896;9.192;2024-03-07T11:13:04;29.87;;;21.57;;
7933;SDS011;4012;48.896;9.192;2024-03-07T11:15:34;29.73;;;21.00;;
7933;SDS011;4012;48.896;9.192;2024-03-07T11:18:01;28.77;;;20.93;;
7933;SDS011;4012;48.896;9.192;2024-03-07T11:20:38;27.27;;;21.03;;
7933;SDS011;4012;48.896;9.192;2024-03-07T11:26:04;27.53;;;19.87;;
7933;SDS011;4012;48.896;9.192;2024-03-07T11:28:43;23.80;;;20.37;;
7933;SDS011;4012;48.896;9.192;2024-03-07T11:36:47;28.33;;;22.07;;
7933;SDS011;4012;48.896;9.192;2024-03-07T11:42:06;24.27;;;20.43;;
7933;SDS011;4012;48.896;9.192;2024-03-07T11:44:33;25.73;;;19.53;;
7933;SDS011;4012;48.896;9.192;2024-03-07T11:47:04;24.97;;;19.53;;
7933;SDS011;4012;48.896;9.192;2024-03-07T11:49:36;26.53;;;20.90;;
7933;SDS011;4012;48.896;9.192;2024-03-07T11:52:03;28.13;;;20.40;;
7933;SDS011;4012;48.896;9.192;2024-03-07T11:54:38;27.07;;;19.80;;
7933;SDS011;4012;48.896;9.192;2024-03-07T11:57:20;28.17;;;20.97;;
7933;SDS011;4012;48.896;9.192;2024-03-07T11:59:51;23.87;;;19.67;;
7933;SDS011;4012;48.896;9.192;2024-03-07T12:02:17;27.10;;;19.87;;
7933;SDS011;4012;48.896;9.192;2024-03-07T12:04:47;25.47;;;18.20;;
7933;SDS011;4012;48.896;9.192;2024-03-07T12:07:16;25.20;;;18.80;;
7933;SDS011;4012;48.896;9.192;2024-03-07T12:09:43;26.23;;;18.77;;
7933;SDS011;4012;48.896;9.192;2024-03-07T12:12:15;25.57;;;19.90;;
7933;SDS011;4012;48.896;9.192;2024-03-07T12:14:42;51.60;;;23.00;;
7933;SDS011;4012;48.896;9.192;2024-03-07T12:17:08;36.73;;;21.77;;
7933;SDS011;4012;48.896;9.192;2024-03-07T12:19:34;25.30;;;19.03;;
7933;SDS011;4012;48.896;9.192;2024-03-07T12:22:03;30.00;;;20.70;;
7933;SDS011;4012;48.896;9.192;2024-03-07T12:24:37;30.97;;;22.33;;
7933;SDS011;4012;48.896;9.192;2024-03-07T12:27:09;27.17;;;19.47;;
7933;SDS011;4012;48.896;9.192;2024-03-07T12:29:41;30.77;;;21.50;;
7933;SDS011;4012;48.896;9.192;2024-03-07T12:32:07;30.80;;;21.10;;
7933;SDS011;4012;48.896;9.192;2024-03-07T12:34:36;24.60;;;18.03;;
7933;SDS011;4012;48.896;9.192;2024-03-07T12:37:05;31.33;;;19.20;;
7933;SDS011;4012;48.896;9.192;2024-03-07T12:39:32;26.57;;;20.47;;
7933;SDS011;4012;48.896;9.192;2024-03-07T12:42:04;27.50;;;20.20;;
7933;SDS011;4012;48.896;9.192;2024-03-07T12:44:43;25.27;;;19.97;;
7933;SDS011;4012;48.896;9.192;2024-03-07T12:47:12;22.67;;;18.37;;
7933;SDS011;4012;48.896;9.192;2024-03-07T12:49:39;26.37;;;19.43;;
7933;SDS011;4012;48.896;9.192;2024-03-07T12:52:11;24.20;;;18.50;;
7933;SDS011;4012;48.896;9.192;2024-03-07T12:54:40;24.30;;;15.47;;
7933;SDS011;4012;48.896;9.192;2024-03-07T12:57:06;22.50;;;16.90;;
7933;SDS011;4012;48.896;9.192;2024-03-07T12:59:34;22.30;;;18.17;;
7933;SDS011;4012;48.896;9.192;2024-03-07T13:02:02;29.93;;;20.40;;
7933;SDS011;4012;48.896;9.192;2024-03-07T13:04:31;27.13;;;19.97;;
7933;SDS011;4012;48.896;9.192;2024-03-07T13:07:02;23.13;;;18.33;;
7933;SDS011;4012;48.896;9.192;2024-03-07T13:09:29;23.53;;;17.97;;
7933;SDS011;4012;48.896;9.192;2024-03-07T13:11:58;24.93;;;16.43;;
7933;SDS011;4012;48.896;9.192;2024-03-07T13:14:26;25.93;;;18.90;;
7933;SDS011;4012;48.896;9.192;2024-03-07T13:16:57;22.83;;;17.67;;
7933;SDS011;4012;48.896;9.192;2024-03-07T13:19:27;23.50;;;19.77;;
7933;SDS011;4012;48.896;9.192;2024-03-07T13:21:53;30.77;;;20.53;;
7933;SDS011;4012;48.896;9.192;2024-03-07T13:24:19;25.57;;;19.20;;
7933;SDS011;4012;48.896;9.192;2024-03-07T13:26:46;27.07;;;19.67;;
7933;SDS011;4012;48.896;9.192;2024-03-07T13:29:15;25.70;;;19.83;;
7933;SDS011;4012;48.896;9.192;2024-03-07T13:31:42;28.90;;;20.23;;
7933;SDS011;4012;48.896;9.192;2024-03-07T13:34:09;26.23;;;18.93;;
7933;SDS011;4012;48.896;9.192;2024-03-07T13:36:41;26.20;;;20.90;;
7933;SDS011;4012;48.896;9.192;2024-03-07T13:39:08;27.37;;;19.77;;
7933;SDS011;4012;48.896;9.192;2024-03-07T13:41:39;28.37;;;19.60;;
7933;SDS011;4012;48.896;9.192;2024-03-07T13:44:05;29.50;;;19.03;;
7933;SDS011;4012;48.896;9.192;2024-03-07T13:46:31;25.47;;;20.23;;
7933;SDS011;4012;48.896;9.192;2024-03-07T13:49:01;25.13;;;20.80;;
7933;SDS011;4012;48.896;9.192;2024-03-07T13:51:41;22.83;;;18.73;;
7933;SDS011;4012;48.896;9.192;2024-03-07T13:54:18;25.00;;;20.00;;
7933;SDS011;4012;48.896;9.192;2024-03-07T14:00:04;30.07;;;21.97;;
7933;SDS011;4012;48.896;9.192;2024-03-07T14:06:01;25.57;;;21.03;;
7933;SDS011;4012;48.896;9.192;2024-03-07T14:11:41;26.20;;;20.70;;
7933;SDS011;4012;48.896;9.192;2024-03-07T14:28:33;27.77;;;21.63;;
7933;SDS011;4012;48.896;9.192;2024-03-07T14:31:11;26.90;;;20.63;;
7933;SDS011;4012;48.896;9.192;2024-03-07T14:39:05;26.67;;;19.23;;
7933;SDS011;4012;48.896;9.192;2024-03-07T14:41:51;23.27;;;17.37;;
7933;SDS011;4012;48.896;9.192;2024-03-07T14:44:21;27.37;;;18.60;;
7933;SDS011;4012;48.896;9.192;2024-03-07T14:46:48;26.73;;;21.33;;
7933;SDS011;4012;48.896;9.192;2024-03-07T14:49:20;27.73;;;21.50;;
7933;SDS011;4012;48.896;9.192;2024-03-07T14:51:46;25.13;;;19.10;;
7933;SDS011;4012;48.896;9.192;2024-03-07T14:54:14;28.40;;;20.90;;
7933;SDS011;4012;48.896;9.192;2024-03-07T14:56:40;26.50;;;20.63;;
7933;SDS011;4012;48.896;9.192;2024-03-07T14:59:06;26.57;;;19.43;;
7933;SDS011;4012;48.896;9.192;2024-03-07T15:01:32;29.73;;;19.00;;
7933;SDS011;4012;48.896;9.192;2024-03-07T15:03:59;25.17;;;19.83;;
7933;SDS011;4012;48.896;9.192;2024-03-07T15:06:28;26.37;;;19.70;;
7933;SDS011;4012;48.896;9.192;2024-03-07T15:08:56;26.90;;;20.07;;
7933;SDS011;4012;48.896;9.192;2024-03-07T15:11:26;23.73;;;18.40;;
7933;SDS011;4012;48.896;9.192;2024-03-07T15:14:01;23.63;;;18.60;;
7933;SDS011;4012;48.896;9.192;2024-03-07T15:16:29;22.73;;;17.47;;
7933;SDS011;4012;48.896;9.192;2024-03-07T15:19:00;23.47;;;17.83;;
7933;SDS011;4012;48.896;9.192;2024-03-07T15:21:26;25.33;;;19.63;;
7933;SDS011;4012;48.896;9.192;2024-03-07T15:23:54;22.70;;;16.40;;
7933;SDS011;4012;48.896;9.192;2024-03-07T15:26:23;20.33;;;15.03;;
7933;SDS011;4012;48.896;9.192;2024-03-07T15:28:52;24.60;;;17.97;;
7933;SDS011;4012;48.896;9.192;2024-03-07T15:31:19;21.50;;;16.47;;
7933;SDS011;4012;48.896;9.192;2024-03-07T15:33:48;23.03;;;17.20;;
7933;SDS011;4012;48.896;9.192;2024-03-07T15:36:16;24.00;;;18.50;;
7933;SDS011;4012;48.896;9.192;2024-03-07T15:38:42;24.30;;;17.60;;
7933;SDS011;4012;48.896;9.192;2024-03-07T15:41:09;23.87;;;17.70;;